Golden Shores, Arizona
Current Conditions -  °F | °C
As of 2:56 AM on Wednesday 22 Oct 2014 (Local Time) from KEED Reporting Station
Clear Clear  
Wind Chill: 70°   Ceiling: Unl
Heat Index: 70°   Visibility: 10mi
Dew Point: 43°   Wind: 6mph
Humidity: 38%   Direction: 210°SSW
Pressure: 29.84"   Gusts: NA
Location:  34.7791°N, 114.467°W
Report Text: KEED 220956Z AUTO 21005KT 10SM CLR 21/06 A2984 RMK AO2 SLP076 T02110061
Loading
Personal Weather Stations






























Interactive Weather Map
Tropical Storm Tracking
New forecast layout! Learn more

10-Day Weather Forecast

Advertisements
Track Severe Weather on mobile